sensor_id;sensor_type;location;lat;lon;timestamp;P1;durP1;ratioP1;P2;durP2;ratioP2
77326;SDS011;66399;52.322;20.980;2023-01-23T00:01:36;10.70;;;4.30;;
77326;SDS011;66399;52.322;20.980;2023-01-23T00:05:41;12.90;;;4.70;;
77326;SDS011;66399;52.322;20.980;2023-01-23T00:09:46;13.50;;;6.30;;
77326;SDS011;66399;52.322;20.980;2023-01-23T00:13:52;14.10;;;5.10;;
77326;SDS011;66399;52.322;20.980;2023-01-23T00:17:57;14.60;;;5.10;;
77326;SDS011;66399;52.322;20.980;2023-01-23T00:22:02;13.40;;;5.60;;
77326;SDS011;66399;52.322;20.980;2023-01-23T00:26:08;10.50;;;4.60;;
77326;SDS011;66399;52.322;20.980;2023-01-23T00:30:15;9.60;;;5.20;;
77326;SDS011;66399;52.322;20.980;2023-01-23T00:34:21;12.60;;;5.50;;
77326;SDS011;66399;52.322;20.980;2023-01-23T00:38:26;11.80;;;5.00;;
77326;SDS011;66399;52.322;20.980;2023-01-23T00:42:31;10.50;;;4.70;;
77326;SDS011;66399;52.322;20.980;2023-01-23T00:46:37;11.30;;;5.10;;
77326;SDS011;66399;52.322;20.980;2023-01-23T00:50:42;14.10;;;5.30;;
77326;SDS011;66399;52.322;20.980;2023-01-23T00:54:47;12.90;;;4.90;;
77326;SDS011;66399;52.322;20.980;2023-01-23T00:58:53;12.30;;;4.80;;
77326;SDS011;66399;52.322;20.980;2023-01-23T01:02:58;10.20;;;4.50;;
77326;SDS011;66399;52.322;20.980;2023-01-23T01:07:03;13.30;;;4.70;;
77326;SDS011;66399;52.322;20.980;2023-01-23T01:11:08;8.70;;;3.70;;
77326;SDS011;66399;52.322;20.980;2023-01-23T01:15:14;4.50;;;1.90;;
77326;SDS011;66399;52.322;20.980;2023-01-23T01:19:19;10.80;;;5.00;;
77326;SDS011;66399;52.322;20.980;2023-01-23T01:23:24;13.60;;;4.90;;
77326;SDS011;66399;52.322;20.980;2023-01-23T01:27:30;14.00;;;5.40;;
77326;SDS011;66399;52.322;20.980;2023-01-23T01:31:35;13.60;;;5.30;;
77326;SDS011;66399;52.322;20.980;2023-01-23T01:35:40;14.30;;;5.20;;
77326;SDS011;66399;52.322;20.980;2023-01-23T01:39:45;10.60;;;4.10;;
77326;SDS011;66399;52.322;20.980;2023-01-23T01:43:51;11.90;;;4.20;;
77326;SDS011;66399;52.322;20.980;2023-01-23T01:47:59;15.80;;;5.40;;
77326;SDS011;66399;52.322;20.980;2023-01-23T01:52:06;9.90;;;4.00;;
77326;SDS011;66399;52.322;20.980;2023-01-23T01:56:12;10.80;;;5.10;;
77326;SDS011;66399;52.322;20.980;2023-01-23T02:00:18;18.30;;;4.90;;
77326;SDS011;66399;52.322;20.980;2023-01-23T02:08:29;14.70;;;5.40;;
77326;SDS011;66399;52.322;20.980;2023-01-23T02:12:35;12.20;;;4.80;;
77326;SDS011;66399;52.322;20.980;2023-01-23T02:16:41;13.60;;;4.70;;
77326;SDS011;66399;52.322;20.980;2023-01-23T02:20:53;13.10;;;5.10;;
77326;SDS011;66399;52.322;20.980;2023-01-23T02:25:02;14.50;;;5.50;;
77326;SDS011;66399;52.322;20.980;2023-01-23T02:29:08;14.10;;;5.60;;
77326;SDS011;66399;52.322;20.980;2023-01-23T02:37:32;10.50;;;4.70;;
77326;SDS011;66399;52.322;20.980;2023-01-23T02:41:39;15.20;;;5.30;;
77326;SDS011;66399;52.322;20.980;2023-01-23T02:45:45;8.20;;;3.10;;
77326;SDS011;66399;52.322;20.980;2023-01-23T02:49:50;11.70;;;5.20;;
77326;SDS011;66399;52.322;20.980;2023-01-23T02:53:56;12.70;;;4.70;;
77326;SDS011;66399;52.322;20.980;2023-01-23T02:58:01;12.10;;;4.70;;
77326;SDS011;66399;52.322;20.980;2023-01-23T03:02:20;9.30;;;3.90;;
77326;SDS011;66399;52.322;20.980;2023-01-23T03:06:25;16.00;;;5.40;;
77326;SDS011;66399;52.322;20.980;2023-01-23T03:10:31;14.30;;;5.40;;
77326;SDS011;66399;52.322;20.980;2023-01-23T03:14:36;13.80;;;5.10;;
77326;SDS011;66399;52.322;20.980;2023-01-23T03:18:41;15.50;;;4.90;;
77326;SDS011;66399;52.322;20.980;2023-01-23T03:22:57;13.00;;;5.10;;
77326;SDS011;66399;52.322;20.980;2023-01-23T03:27:02;13.40;;;4.90;;
77326;SDS011;66399;52.322;20.980;2023-01-23T03:31:07;15.30;;;5.10;;
77326;SDS011;66399;52.322;20.980;2023-01-23T03:35:13;12.10;;;4.90;;
77326;SDS011;66399;52.322;20.980;2023-01-23T03:39:19;13.90;;;5.00;;
77326;SDS011;66399;52.322;20.980;2023-01-23T03:43:42;14.40;;;4.80;;
77326;SDS011;66399;52.322;20.980;2023-01-23T03:47:47;12.10;;;5.10;;
77326;SDS011;66399;52.322;20.980;2023-01-23T03:51:52;14.80;;;4.90;;
77326;SDS011;66399;52.322;20.980;2023-01-23T03:55:57;13.30;;;4.90;;
77326;SDS011;66399;52.322;20.980;2023-01-23T04:00:04;15.30;;;4.90;;
77326;SDS011;66399;52.322;20.980;2023-01-23T04:08:13;12.00;;;4.80;;
77326;SDS011;66399;52.322;20.980;2023-01-23T04:12:18;12.80;;;5.40;;
77326;SDS011;66399;52.322;20.980;2023-01-23T04:16:24;9.40;;;4.30;;
77326;SDS011;66399;52.322;20.980;2023-01-23T04:20:31;15.50;;;5.80;;
77326;SDS011;66399;52.322;20.980;2023-01-23T04:24:36;16.60;;;6.40;;
77326;SDS011;66399;52.322;20.980;2023-01-23T04:28:42;13.70;;;6.00;;
77326;SDS011;66399;52.322;20.980;2023-01-23T04:32:47;24.30;;;12.70;;
77326;SDS011;66399;52.322;20.980;2023-01-23T04:36:52;14.30;;;5.90;;
77326;SDS011;66399;52.322;20.980;2023-01-23T04:40:57;17.60;;;5.30;;
77326;SDS011;66399;52.322;20.980;2023-01-23T04:45:03;14.20;;;5.20;;
77326;SDS011;66399;52.322;20.980;2023-01-23T04:49:08;11.90;;;4.50;;
77326;SDS011;66399;52.322;20.980;2023-01-23T04:53:13;10.00;;;3.40;;
77326;SDS011;66399;52.322;20.980;2023-01-23T04:57:19;15.00;;;5.50;;
77326;SDS011;66399;52.322;20.980;2023-01-23T05:01:24;12.70;;;5.30;;
77326;SDS011;66399;52.322;20.980;2023-01-23T05:05:30;15.00;;;5.50;;
77326;SDS011;66399;52.322;20.980;2023-01-23T05:09:35;10.80;;;4.00;;
77326;SDS011;66399;52.322;20.980;2023-01-23T05:13:40;13.90;;;5.20;;
77326;SDS011;66399;52.322;20.980;2023-01-23T05:17:46;14.60;;;5.60;;
77326;SDS011;66399;52.322;20.980;2023-01-23T05:21:51;13.70;;;5.00;;
77326;SDS011;66399;52.322;20.980;2023-01-23T05:25:56;12.30;;;4.60;;
77326;SDS011;66399;52.322;20.980;2023-01-23T05:30:02;12.70;;;5.40;;
77326;SDS011;66399;52.322;20.980;2023-01-23T05:34:07;15.50;;;5.50;;
77326;SDS011;66399;52.322;20.980;2023-01-23T05:38:12;14.00;;;5.20;;
77326;SDS011;66399;52.322;20.980;2023-01-23T05:42:18;13.20;;;5.20;;
77326;SDS011;66399;52.322;20.980;2023-01-23T05:46:23;16.30;;;6.30;;
77326;SDS011;66399;52.322;20.980;2023-01-23T05:50:28;14.00;;;5.50;;
77326;SDS011;66399;52.322;20.980;2023-01-23T05:54:36;14.10;;;5.00;;
77326;SDS011;66399;52.322;20.980;2023-01-23T05:58:41;16.80;;;6.40;;
77326;SDS011;66399;52.322;20.980;2023-01-23T06:02:47;14.30;;;5.40;;
77326;SDS011;66399;52.322;20.980;2023-01-23T06:06:52;14.80;;;5.20;;
77326;SDS011;66399;52.322;20.980;2023-01-23T06:10:57;18.00;;;5.80;;
77326;SDS011;66399;52.322;20.980;2023-01-23T06:15:03;13.00;;;5.30;;
77326;SDS011;66399;52.322;20.980;2023-01-23T06:19:09;13.80;;;5.70;;
77326;SDS011;66399;52.322;20.980;2023-01-23T06:23:14;13.40;;;5.60;;
77326;SDS011;66399;52.322;20.980;2023-01-23T06:27:19;7.50;;;3.10;;
77326;SDS011;66399;52.322;20.980;2023-01-23T06:31:25;14.70;;;5.90;;
77326;SDS011;66399;52.322;20.980;2023-01-23T06:35:30;13.20;;;4.90;;
77326;SDS011;66399;52.322;20.980;2023-01-23T06:39:35;14.80;;;5.40;;
77326;SDS011;66399;52.322;20.980;2023-01-23T06:43:41;16.00;;;5.00;;
77326;SDS011;66399;52.322;20.980;2023-01-23T06:47:46;16.40;;;5.70;;
77326;SDS011;66399;52.322;20.980;2023-01-23T06:51:52;12.50;;;6.20;;
77326;SDS011;66399;52.322;20.980;2023-01-23T06:55:59;16.50;;;6.50;;
77326;SDS011;66399;52.322;20.980;2023-01-23T07:00:05;17.40;;;6.00;;
77326;SDS011;66399;52.322;20.980;2023-01-23T07:04:11;15.20;;;5.90;;
77326;SDS011;66399;52.322;20.980;2023-01-23T07:08:16;20.00;;;7.10;;
77326;SDS011;66399;52.322;20.980;2023-01-23T07:12:21;18.10;;;7.10;;
77326;SDS011;66399;52.322;20.980;2023-01-23T07:16:27;15.40;;;5.90;;
77326;SDS011;66399;52.322;20.980;2023-01-23T07:20:32;19.40;;;8.10;;
77326;SDS011;66399;52.322;20.980;2023-01-23T07:24:37;15.10;;;7.00;;
77326;SDS011;66399;52.322;20.980;2023-01-23T07:28:43;22.90;;;9.20;;
77326;SDS011;66399;52.322;20.980;2023-01-23T07:32:48;10.10;;;4.40;;
77326;SDS011;66399;52.322;20.980;2023-01-23T07:36:53;22.70;;;8.40;;
77326;SDS011;66399;52.322;20.980;2023-01-23T07:40:59;20.20;;;7.60;;
77326;SDS011;66399;52.322;20.980;2023-01-23T07:45:04;12.60;;;5.70;;
77326;SDS011;66399;52.322;20.980;2023-01-23T07:49:10;18.40;;;6.40;;
77326;SDS011;66399;52.322;20.980;2023-01-23T07:53:15;16.70;;;7.00;;
77326;SDS011;66399;52.322;20.980;2023-01-23T07:57:21;17.80;;;5.80;;
77326;SDS011;66399;52.322;20.980;2023-01-23T08:01:26;16.90;;;6.60;;
77326;SDS011;66399;52.322;20.980;2023-01-23T08:05:31;13.30;;;5.70;;
77326;SDS011;66399;52.322;20.980;2023-01-23T08:09:36;13.20;;;5.50;;
77326;SDS011;66399;52.322;20.980;2023-01-23T08:13:43;17.20;;;6.10;;
77326;SDS011;66399;52.322;20.980;2023-01-23T08:17:52;14.00;;;5.20;;
77326;SDS011;66399;52.322;20.980;2023-01-23T08:21:57;16.70;;;6.20;;
77326;SDS011;66399;52.322;20.980;2023-01-23T08:26:03;15.70;;;5.80;;
77326;SDS011;66399;52.322;20.980;2023-01-23T08:30:10;14.00;;;5.70;;
77326;SDS011;66399;52.322;20.980;2023-01-23T08:34:15;16.00;;;5.80;;
77326;SDS011;66399;52.322;20.980;2023-01-23T08:38:21;14.60;;;5.70;;
77326;SDS011;66399;52.322;20.980;2023-01-23T08:42:26;15.90;;;5.60;;
77326;SDS011;66399;52.322;20.980;2023-01-23T08:46:32;14.50;;;6.20;;
77326;SDS011;66399;52.322;20.980;2023-01-23T08:50:37;17.30;;;5.90;;
77326;SDS011;66399;52.322;20.980;2023-01-23T08:54:42;16.70;;;6.00;;
77326;SDS011;66399;52.322;20.980;2023-01-23T08:58:47;14.30;;;5.70;;
77326;SDS011;66399;52.322;20.980;2023-01-23T09:02:53;17.00;;;7.60;;
77326;SDS011;66399;52.322;20.980;2023-01-23T09:06:58;13.20;;;5.40;;
77326;SDS011;66399;52.322;20.980;2023-01-23T09:11:04;12.80;;;5.80;;
77326;SDS011;66399;52.322;20.980;2023-01-23T09:15:10;15.30;;;5.70;;
77326;SDS011;66399;52.322;20.980;2023-01-23T09:19:15;16.40;;;5.90;;
77326;SDS011;66399;52.322;20.980;2023-01-23T09:23:20;70.20;;;28.50;;
77326;SDS011;66399;52.322;20.980;2023-01-23T09:27:26;19.30;;;6.90;;
77326;SDS011;66399;52.322;20.980;2023-01-23T09:31:31;9.50;;;4.20;;
77326;SDS011;66399;52.322;20.980;2023-01-23T09:35:37;17.10;;;6.20;;
77326;SDS011;66399;52.322;20.980;2023-01-23T09:39:42;17.80;;;7.60;;
77326;SDS011;66399;52.322;20.980;2023-01-23T09:43:50;11.10;;;5.20;;
77326;SDS011;66399;52.322;20.980;2023-01-23T09:47:58;13.80;;;5.10;;
77326;SDS011;66399;52.322;20.980;2023-01-23T09:52:09;10.90;;;4.80;;
77326;SDS011;66399;52.322;20.980;2023-01-23T09:56:23;6.80;;;3.20;;
77326;SDS011;66399;52.322;20.980;2023-01-23T10:00:32;15.10;;;6.00;;
77326;SDS011;66399;52.322;20.980;2023-01-23T10:04:39;12.70;;;4.70;;
77326;SDS011;66399;52.322;20.980;2023-01-23T10:08:46;13.40;;;4.90;;
77326;SDS011;66399;52.322;20.980;2023-01-23T10:12:56;16.30;;;6.40;;
77326;SDS011;66399;52.322;20.980;2023-01-23T10:17:07;11.50;;;5.10;;
77326;SDS011;66399;52.322;20.980;2023-01-23T10:21:19;12.40;;;5.80;;
77326;SDS011;66399;52.322;20.980;2023-01-23T10:25:27;13.70;;;5.80;;
77326;SDS011;66399;52.322;20.980;2023-01-23T10:29:35;11.60;;;5.50;;
77326;SDS011;66399;52.322;20.980;2023-01-23T10:33:44;14.50;;;6.20;;
77326;SDS011;66399;52.322;20.980;2023-01-23T10:37:52;13.40;;;6.00;;
77326;SDS011;66399;52.322;20.980;2023-01-23T10:42:00;12.10;;;5.20;;
77326;SDS011;66399;52.322;20.980;2023-01-23T10:46:09;11.80;;;5.80;;
77326;SDS011;66399;52.322;20.980;2023-01-23T10:50:15;10.00;;;3.70;;
77326;SDS011;66399;52.322;20.980;2023-01-23T10:54:44;16.90;;;7.00;;
77326;SDS011;66399;52.322;20.980;2023-01-23T10:58:50;15.70;;;6.50;;
77326;SDS011;66399;52.322;20.980;2023-01-23T11:03:00;13.40;;;5.10;;
77326;SDS011;66399;52.322;20.980;2023-01-23T11:07:23;14.00;;;5.80;;
77326;SDS011;66399;52.322;20.980;2023-01-23T11:11:29;18.30;;;7.00;;
77326;SDS011;66399;52.322;20.980;2023-01-23T11:15:35;16.10;;;6.70;;
77326;SDS011;66399;52.322;20.980;2023-01-23T11:19:44;18.90;;;6.80;;
77326;SDS011;66399;52.322;20.980;2023-01-23T11:23:52;14.70;;;6.80;;
77326;SDS011;66399;52.322;20.980;2023-01-23T11:28:19;15.70;;;5.50;;
77326;SDS011;66399;52.322;20.980;2023-01-23T11:32:26;16.00;;;6.80;;
77326;SDS011;66399;52.322;20.980;2023-01-23T11:36:40;16.10;;;7.80;;
77326;SDS011;66399;52.322;20.980;2023-01-23T11:40:47;17.40;;;6.90;;
77326;SDS011;66399;52.322;20.980;2023-01-23T11:44:52;18.00;;;6.70;;
77326;SDS011;66399;52.322;20.980;2023-01-23T11:49:02;16.70;;;7.50;;
77326;SDS011;66399;52.322;20.980;2023-01-23T11:53:14;19.20;;;8.00;;
77326;SDS011;66399;52.322;20.980;2023-01-23T11:57:32;15.70;;;7.10;;
77326;SDS011;66399;52.322;20.980;2023-01-23T12:01:42;10.50;;;4.00;;
77326;SDS011;66399;52.322;20.980;2023-01-23T12:10:31;21.50;;;8.30;;
77326;SDS011;66399;52.322;20.980;2023-01-23T12:14:41;17.20;;;7.40;;
77326;SDS011;66399;52.322;20.980;2023-01-23T12:18:52;17.10;;;7.60;;
77326;SDS011;66399;52.322;20.980;2023-01-23T12:23:19;19.60;;;7.80;;
77326;SDS011;66399;52.322;20.980;2023-01-23T12:27:26;30.70;;;11.00;;
77326;SDS011;66399;52.322;20.980;2023-01-23T12:31:42;66.60;;;26.60;;
77326;SDS011;66399;52.322;20.980;2023-01-23T12:35:53;63.00;;;21.90;;
77326;SDS011;66399;52.322;20.980;2023-01-23T12:40:01;63.50;;;21.00;;
77326;SDS011;66399;52.322;20.980;2023-01-23T12:44:12;22.10;;;9.70;;
77326;SDS011;66399;52.322;20.980;2023-01-23T12:48:20;17.00;;;7.50;;
77326;SDS011;66399;52.322;20.980;2023-01-23T12:52:32;17.60;;;8.70;;
77326;SDS011;66399;52.322;20.980;2023-01-23T12:56:39;16.90;;;6.80;;
77326;SDS011;66399;52.322;20.980;2023-01-23T13:00:47;15.50;;;6.70;;
77326;SDS011;66399;52.322;20.980;2023-01-23T13:04:55;13.40;;;5.70;;
77326;SDS011;66399;52.322;20.980;2023-01-23T13:09:06;16.60;;;6.90;;
77326;SDS011;66399;52.322;20.980;2023-01-23T13:13:21;9.10;;;3.70;;
77326;SDS011;66399;52.322;20.980;2023-01-23T13:17:30;15.50;;;7.30;;
77326;SDS011;66399;52.322;20.980;2023-01-23T13:21:39;7.20;;;3.40;;
77326;SDS011;66399;52.322;20.980;2023-01-23T13:26:11;16.80;;;7.50;;
77326;SDS011;66399;52.322;20.980;2023-01-23T13:30:38;14.30;;;7.20;;
77326;SDS011;66399;52.322;20.980;2023-01-23T13:34:44;17.40;;;7.60;;
77326;SDS011;66399;52.322;20.980;2023-01-23T13:39:00;16.70;;;7.10;;
77326;SDS011;66399;52.322;20.980;2023-01-23T13:47:25;14.10;;;6.50;;
77326;SDS011;66399;52.322;20.980;2023-01-23T13:52:05;14.60;;;6.30;;
77326;SDS011;66399;52.322;20.980;2023-01-23T13:56:46;16.00;;;6.60;;
77326;SDS011;66399;52.322;20.980;2023-01-23T14:01:07;12.90;;;4.90;;
77326;SDS011;66399;52.322;20.980;2023-01-23T14:05:45;11.20;;;4.80;;
77326;SDS011;66399;52.322;20.980;2023-01-23T14:10:09;10.60;;;4.30;;
77326;SDS011;66399;52.322;20.980;2023-01-23T14:14:33;14.00;;;5.90;;
77326;SDS011;66399;52.322;20.980;2023-01-23T14:19:15;15.20;;;6.30;;
77326;SDS011;66399;52.322;20.980;2023-01-23T14:23:39;19.30;;;7.70;;
77326;SDS011;66399;52.322;20.980;2023-01-23T14:27:45;16.20;;;6.50;;
77326;SDS011;66399;52.322;20.980;2023-01-23T14:31:56;13.70;;;6.50;;
77326;SDS011;66399;52.322;20.980;2023-01-23T14:36:02;12.10;;;6.10;;
77326;SDS011;66399;52.322;20.980;2023-01-23T14:40:12;14.80;;;6.10;;
77326;SDS011;66399;52.322;20.980;2023-01-23T14:44:30;17.60;;;6.70;;
77326;SDS011;66399;52.322;20.980;2023-01-23T14:48:37;16.90;;;7.70;;
77326;SDS011;66399;52.322;20.980;2023-01-23T14:52:45;13.50;;;6.30;;
77326;SDS011;66399;52.322;20.980;2023-01-23T14:56:50;15.40;;;6.50;;
77326;SDS011;66399;52.322;20.980;2023-01-23T15:00:57;16.90;;;6.40;;
77326;SDS011;66399;52.322;20.980;2023-01-23T15:05:06;16.00;;;6.10;;
77326;SDS011;66399;52.322;20.980;2023-01-23T15:09:13;19.70;;;7.30;;
77326;SDS011;66399;52.322;20.980;2023-01-23T15:13:21;20.50;;;7.40;;
77326;SDS011;66399;52.322;20.980;2023-01-23T15:17:26;14.10;;;6.70;;
77326;SDS011;66399;52.322;20.980;2023-01-23T15:21:33;16.10;;;7.20;;
77326;SDS011;66399;52.322;20.980;2023-01-23T15:25:38;16.50;;;6.80;;
77326;SDS011;66399;52.322;20.980;2023-01-23T15:29:44;15.50;;;7.30;;
77326;SDS011;66399;52.322;20.980;2023-01-23T15:33:49;18.10;;;8.00;;
77326;SDS011;66399;52.322;20.980;2023-01-23T15:37:55;13.90;;;5.90;;
77326;SDS011;66399;52.322;20.980;2023-01-23T15:42:03;14.90;;;6.70;;
77326;SDS011;66399;52.322;20.980;2023-01-23T15:50:12;14.20;;;5.80;;
77326;SDS011;66399;52.322;20.980;2023-01-23T15:54:20;19.70;;;8.40;;
77326;SDS011;66399;52.322;20.980;2023-01-23T15:58:27;21.80;;;7.70;;
77326;SDS011;66399;52.322;20.980;2023-01-23T16:02:33;14.40;;;6.30;;
77326;SDS011;66399;52.322;20.980;2023-01-23T16:06:47;14.90;;;6.50;;
77326;SDS011;66399;52.322;20.980;2023-01-23T16:10:52;15.10;;;7.10;;
77326;SDS011;66399;52.322;20.980;2023-01-23T16:14:57;22.10;;;8.10;;
77326;SDS011;66399;52.322;20.980;2023-01-23T16:19:03;15.70;;;7.00;;
77326;SDS011;66399;52.322;20.980;2023-01-23T16:23:10;18.70;;;7.90;;
77326;SDS011;66399;52.322;20.980;2023-01-23T16:27:18;19.10;;;7.30;;
77326;SDS011;66399;52.322;20.980;2023-01-23T16:31:28;13.90;;;6.10;;
77326;SDS011;66399;52.322;20.980;2023-01-23T16:35:33;18.40;;;7.20;;
77326;SDS011;66399;52.322;20.980;2023-01-23T16:39:39;24.20;;;9.20;;
77326;SDS011;66399;52.322;20.980;2023-01-23T16:43:45;18.60;;;7.70;;
77326;SDS011;66399;52.322;20.980;2023-01-23T16:47:51;19.20;;;8.30;;
77326;SDS011;66399;52.322;20.980;2023-01-23T16:51:57;18.50;;;7.60;;
77326;SDS011;66399;52.322;20.980;2023-01-23T16:56:03;22.00;;;9.00;;
77326;SDS011;66399;52.322;20.980;2023-01-23T17:00:12;20.40;;;8.30;;
77326;SDS011;66399;52.322;20.980;2023-01-23T17:04:22;21.60;;;7.90;;
77326;SDS011;66399;52.322;20.980;2023-01-23T17:08:29;27.40;;;11.90;;
77326;SDS011;66399;52.322;20.980;2023-01-23T17:12:34;20.10;;;7.40;;
77326;SDS011;66399;52.322;20.980;2023-01-23T17:16:47;23.20;;;9.20;;
77326;SDS011;66399;52.322;20.980;2023-01-23T17:20:53;21.50;;;9.70;;
77326;SDS011;66399;52.322;20.980;2023-01-23T17:24:59;20.70;;;8.80;;
77326;SDS011;66399;52.322;20.980;2023-01-23T17:29:04;25.70;;;9.10;;
77326;SDS011;66399;52.322;20.980;2023-01-23T17:33:15;21.90;;;8.40;;
77326;SDS011;66399;52.322;20.980;2023-01-23T17:37:20;22.90;;;7.90;;
77326;SDS011;66399;52.322;20.980;2023-01-23T17:41:26;18.50;;;7.60;;
77326;SDS011;66399;52.322;20.980;2023-01-23T17:45:31;24.50;;;8.90;;
77326;SDS011;66399;52.322;20.980;2023-01-23T17:49:37;20.60;;;8.20;;
77326;SDS011;66399;52.322;20.980;2023-01-23T17:53:43;23.50;;;8.70;;
77326;SDS011;66399;52.322;20.980;2023-01-23T17:57:48;18.00;;;6.30;;
77326;SDS011;66399;52.322;20.980;2023-01-23T18:01:54;18.20;;;7.90;;
77326;SDS011;66399;52.322;20.980;2023-01-23T18:05:59;23.10;;;8.90;;
77326;SDS011;66399;52.322;20.980;2023-01-23T18:10:05;22.50;;;9.40;;
77326;SDS011;66399;52.322;20.980;2023-01-23T18:14:22;19.80;;;8.00;;
77326;SDS011;66399;52.322;20.980;2023-01-23T18:18:32;20.90;;;8.60;;
77326;SDS011;66399;52.322;20.980;2023-01-23T18:22:39;20.30;;;7.90;;
77326;SDS011;66399;52.322;20.980;2023-01-23T18:26:46;22.20;;;8.50;;
77326;SDS011;66399;52.322;20.980;2023-01-23T18:30:56;19.90;;;8.40;;
77326;SDS011;66399;52.322;20.980;2023-01-23T18:35:06;22.70;;;8.90;;
77326;SDS011;66399;52.322;20.980;2023-01-23T18:43:36;32.50;;;11.80;;
77326;SDS011;66399;52.322;20.980;2023-01-23T18:47:43;27.60;;;10.00;;
77326;SDS011;66399;52.322;20.980;2023-01-23T18:51:51;20.80;;;9.40;;
77326;SDS011;66399;52.322;20.980;2023-01-23T18:56:01;26.50;;;10.90;;
77326;SDS011;66399;52.322;20.980;2023-01-23T19:00:14;22.60;;;9.50;;
77326;SDS011;66399;52.322;20.980;2023-01-23T19:04:27;27.00;;;9.80;;
77326;SDS011;66399;52.322;20.980;2023-01-23T19:08:34;24.90;;;10.30;;
77326;SDS011;66399;52.322;20.980;2023-01-23T19:12:40;28.40;;;10.70;;
77326;SDS011;66399;52.322;20.980;2023-01-23T19:16:50;26.90;;;10.20;;
77326;SDS011;66399;52.322;20.980;2023-01-23T19:21:03;27.80;;;10.70;;
77326;SDS011;66399;52.322;20.980;2023-01-23T19:25:14;24.70;;;10.30;;
77326;SDS011;66399;52.322;20.980;2023-01-23T19:29:20;22.80;;;10.00;;
77326;SDS011;66399;52.322;20.980;2023-01-23T19:33:26;29.60;;;11.40;;
77326;SDS011;66399;52.322;20.980;2023-01-23T19:37:31;32.60;;;12.60;;
77326;SDS011;66399;52.322;20.980;2023-01-23T19:41:38;31.80;;;11.90;;
77326;SDS011;66399;52.322;20.980;2023-01-23T19:45:44;31.80;;;10.70;;
77326;SDS011;66399;52.322;20.980;2023-01-23T19:49:50;29.10;;;10.90;;
77326;SDS011;66399;52.322;20.980;2023-01-23T19:53:55;32.20;;;10.90;;
77326;SDS011;66399;52.322;20.980;2023-01-23T19:58:00;31.60;;;10.60;;
77326;SDS011;66399;52.322;20.980;2023-01-23T20:02:07;28.80;;;10.70;;
77326;SDS011;66399;52.322;20.980;2023-01-23T20:06:15;25.20;;;9.50;;
77326;SDS011;66399;52.322;20.980;2023-01-23T20:10:21;23.30;;;9.90;;
77326;SDS011;66399;52.322;20.980;2023-01-23T20:14:26;17.30;;;7.90;;
77326;SDS011;66399;52.322;20.980;2023-01-23T20:18:32;27.10;;;9.50;;
77326;SDS011;66399;52.322;20.980;2023-01-23T20:22:38;27.90;;;9.80;;
77326;SDS011;66399;52.322;20.980;2023-01-23T20:30:48;32.30;;;10.60;;
77326;SDS011;66399;52.322;20.980;2023-01-23T20:34:56;31.80;;;10.30;;
77326;SDS011;66399;52.322;20.980;2023-01-23T20:39:02;29.60;;;10.20;;
77326;SDS011;66399;52.322;20.980;2023-01-23T20:43:08;31.00;;;10.50;;
77326;SDS011;66399;52.322;20.980;2023-01-23T20:47:13;30.50;;;10.60;;
77326;SDS011;66399;52.322;20.980;2023-01-23T20:51:18;28.90;;;10.00;;
77326;SDS011;66399;52.322;20.980;2023-01-23T20:55:23;31.90;;;10.90;;
77326;SDS011;66399;52.322;20.980;2023-01-23T20:59:29;28.80;;;10.40;;
77326;SDS011;66399;52.322;20.980;2023-01-23T21:03:34;28.00;;;9.90;;
77326;SDS011;66399;52.322;20.980;2023-01-23T21:07:39;34.80;;;10.70;;
77326;SDS011;66399;52.322;20.980;2023-01-23T21:11:45;25.90;;;7.90;;
77326;SDS011;66399;52.322;20.980;2023-01-23T21:15:59;31.40;;;11.00;;
77326;SDS011;66399;52.322;20.980;2023-01-23T21:24:08;29.00;;;10.10;;
77326;SDS011;66399;52.322;20.980;2023-01-23T21:28:14;32.00;;;10.60;;
77326;SDS011;66399;52.322;20.980;2023-01-23T21:32:19;26.50;;;9.00;;
77326;SDS011;66399;52.322;20.980;2023-01-23T21:40:29;22.70;;;7.70;;
77326;SDS011;66399;52.322;20.980;2023-01-23T21:44:34;27.40;;;10.90;;
77326;SDS011;66399;52.322;20.980;2023-01-23T21:48:39;29.40;;;9.70;;
77326;SDS011;66399;52.322;20.980;2023-01-23T21:52:44;26.00;;;9.30;;
77326;SDS011;66399;52.322;20.980;2023-01-23T21:56:50;28.20;;;10.80;;
77326;SDS011;66399;52.322;20.980;2023-01-23T22:00:58;30.80;;;10.00;;
77326;SDS011;66399;52.322;20.980;2023-01-23T22:05:21;24.30;;;9.00;;
77326;SDS011;66399;52.322;20.980;2023-01-23T22:09:27;28.40;;;9.60;;
77326;SDS011;66399;52.322;20.980;2023-01-23T22:13:32;31.70;;;10.60;;
77326;SDS011;66399;52.322;20.980;2023-01-23T22:17:37;23.00;;;7.40;;
77326;SDS011;66399;52.322;20.980;2023-01-23T22:21:42;33.20;;;10.50;;
77326;SDS011;66399;52.322;20.980;2023-01-23T22:25:50;25.10;;;9.00;;
77326;SDS011;66399;52.322;20.980;2023-01-23T22:29:55;33.10;;;12.00;;
77326;SDS011;66399;52.322;20.980;2023-01-23T22:34:01;31.40;;;9.90;;
77326;SDS011;66399;52.322;20.980;2023-01-23T22:38:06;32.10;;;10.90;;
77326;SDS011;66399;52.322;20.980;2023-01-23T22:42:12;32.90;;;10.50;;
77326;SDS011;66399;52.322;20.980;2023-01-23T22:46:17;29.50;;;10.80;;
77326;SDS011;66399;52.322;20.980;2023-01-23T22:50:22;33.20;;;11.00;;
77326;SDS011;66399;52.322;20.980;2023-01-23T22:54:28;34.30;;;11.30;;
77326;SDS011;66399;52.322;20.980;2023-01-23T22:58:33;32.90;;;11.10;;
77326;SDS011;66399;52.322;20.980;2023-01-23T23:02:38;28.60;;;10.40;;
77326;SDS011;66399;52.322;20.980;2023-01-23T23:06:44;31.70;;;11.80;;
77326;SDS011;66399;52.322;20.980;2023-01-23T23:10:57;42.20;;;12.60;;
77326;SDS011;66399;52.322;20.980;2023-01-23T23:15:02;32.60;;;10.70;;
77326;SDS011;66399;52.322;20.980;2023-01-23T23:19:09;36.80;;;12.20;;
77326;SDS011;66399;52.322;20.980;2023-01-23T23:23:14;27.00;;;9.00;;
77326;SDS011;66399;52.322;20.980;2023-01-23T23:27:19;30.50;;;10.60;;
77326;SDS011;66399;52.322;20.980;2023-01-23T23:31:25;32.50;;;10.60;;
77326;SDS011;66399;52.322;20.980;2023-01-23T23:35:30;32.70;;;11.50;;
77326;SDS011;66399;52.322;20.980;2023-01-23T23:39:35;29.50;;;10.60;;
77326;SDS011;66399;52.322;20.980;2023-01-23T23:43:41;32.00;;;11.10;;
77326;SDS011;66399;52.322;20.980;2023-01-23T23:47:46;32.30;;;11.10;;
77326;SDS011;66399;52.322;20.980;2023-01-23T23:51:51;32.90;;;11.00;;
77326;SDS011;66399;52.322;20.980;2023-01-23T23:55:57;34.70;;;11.40;;
